createdAt,value
2017-01-31T00:00:15.513Z,1012.4
2017-01-31T00:01:18.969Z,1012.4
2017-01-31T00:02:22.273Z,1012.4
2017-01-31T00:03:25.221Z,1012.4
2017-01-31T00:04:28.669Z,1012.4
2017-01-31T00:05:31.614Z,1012.4
2017-01-31T00:06:35.065Z,1012.4
2017-01-31T00:07:38.015Z,1012.3
2017-01-31T00:08:41.462Z,1012.4
2017-01-31T00:09:44.243Z,1012.3
2017-01-31T00:10:47.690Z,1012.3
2017-01-31T00:11:50.634Z,1012.3
2017-01-31T00:12:54.095Z,1012.4
2017-01-31T00:13:57.068Z,1012.3
2017-01-31T00:16:03.428Z,1012.3
2017-01-31T00:17:06.730Z,1012.3
2017-01-31T00:18:10.182Z,1012.3
2017-01-31T00:19:12.956Z,1012.3
2017-01-31T00:20:16.235Z,1012.3
2017-01-31T00:21:19.685Z,1012.3
2017-01-31T00:22:22.645Z,1012.3
2017-01-31T00:23:26.101Z,1012.3
2017-01-31T00:24:29.045Z,1012.3
2017-01-31T00:25:32.351Z,1012.4
2017-01-31T00:26:35.797Z,1012.4
2017-01-31T00:27:38.741Z,1012.4
2017-01-31T00:28:42.188Z,1012.4
2017-01-31T00:29:45.137Z,1012.4
2017-01-31T00:30:48.088Z,1012.4
2017-01-31T00:31:51.533Z,1012.4
2017-01-31T00:32:54.481Z,1012.5
2017-01-31T00:33:57.957Z,1012.5
2017-01-31T00:35:00.902Z,1012.5
2017-01-31T00:36:04.374Z,1012.5
2017-01-31T00:37:07.652Z,1012.5
2017-01-31T00:38:10.930Z,1012.6
2017-01-31T00:39:13.876Z,1012.6
2017-01-31T00:40:17.323Z,1012.6
2017-01-31T00:41:20.268Z,1012.6
2017-01-31T00:42:23.718Z,1012.6
2017-01-31T00:43:26.677Z,1012.6
2017-01-31T00:44:29.625Z,1012.7
2017-01-31T00:45:33.074Z,1012.6
2017-01-31T00:46:36.023Z,1012.7
2017-01-31T00:47:39.482Z,1012.7
2017-01-31T00:48:42.427Z,1012.7
2017-01-31T00:49:45.885Z,1012.7
2017-01-31T00:50:49.164Z,1012.7
2017-01-31T00:51:52.106Z,1012.7
2017-01-31T00:52:55.556Z,1012.7
2017-01-31T00:53:58.497Z,1012.7
2017-01-31T00:55:01.945Z,1012.7
2017-01-31T00:56:04.890Z,1012.7
2017-01-31T00:57:08.172Z,1012.7
2017-01-31T00:58:11.454Z,1012.7
2017-01-31T00:59:14.734Z,1012.7
2017-01-31T01:00:17.678Z,1012.8
2017-01-31T01:01:21.126Z,1012.8
2017-01-31T01:02:24.072Z,1012.8
2017-01-31T01:03:27.523Z,1012.8
2017-01-31T01:04:30.498Z,1012.8
2017-01-31T01:05:33.950Z,1012.8
2017-01-31T01:06:36.899Z,1012.8
2017-01-31T01:07:40.347Z,1012.8
2017-01-31T01:08:43.288Z,1012.8
2017-01-31T01:09:46.738Z,1012.8
2017-01-31T01:10:49.684Z,1012.8
2017-01-31T01:11:53.133Z,1012.8
2017-01-31T01:12:56.076Z,1012.8
2017-01-31T01:13:59.047Z,1012.8
2017-01-31T01:15:02.500Z,1012.8
2017-01-31T01:16:05.467Z,1012.8
2017-01-31T01:17:08.917Z,1012.8
2017-01-31T01:18:12.201Z,1012.8
2017-01-31T01:19:15.168Z,1012.8
2017-01-31T01:20:18.456Z,1012.8
2017-01-31T01:21:21.404Z,1012.8
2017-01-31T01:22:24.852Z,1012.8
2017-01-31T01:23:27.801Z,1012.8
2017-01-31T01:24:31.256Z,1012.8
2017-01-31T01:25:34.202Z,1012.8
2017-01-31T01:26:37.650Z,1012.9
2017-01-31T01:27:40.597Z,1012.9
2017-01-31T01:28:44.048Z,1012.9
2017-01-31T01:29:47.023Z,1012.9
2017-01-31T01:30:50.479Z,1012.9
2017-01-31T01:31:53.426Z,1012.9
2017-01-31T01:32:56.878Z,1012.9
2017-01-31T01:33:59.826Z,1012.9
2017-01-31T01:35:03.279Z,1012.9
2017-01-31T01:36:06.399Z,1012.9
2017-01-31T01:37:09.679Z,1013
2017-01-31T01:38:12.627Z,1013
2017-01-31T01:39:16.071Z,1013
2017-01-31T01:40:19.019Z,1013
2017-01-31T01:41:22.496Z,1013
2017-01-31T01:42:25.442Z,1013
2017-01-31T01:43:28.896Z,1013
2017-01-31T01:44:32.179Z,1013
2017-01-31T01:45:35.127Z,1013
2017-01-31T01:47:41.482Z,1013.1
2017-01-31T01:48:44.766Z,1013
2017-01-31T01:49:47.710Z,1013.1
2017-01-31T01:50:51.154Z,1013.1
2017-01-31T01:51:54.108Z,1013.1
2017-01-31T01:52:57.555Z,1013.1
2017-01-31T01:54:00.523Z,1013.1
2017-01-31T01:55:03.994Z,1013.1
2017-01-31T01:56:07.274Z,1013.1
2017-01-31T01:57:10.222Z,1013.1
2017-01-31T01:58:13.671Z,1013.1
2017-01-31T01:59:16.615Z,1013.2
2017-01-31T02:00:19.892Z,1013.2
2017-01-31T02:01:23.349Z,1013.1
2017-01-31T02:02:26.319Z,1013.2
2017-01-31T02:03:29.270Z,1013.1
2017-01-31T02:04:32.723Z,1013.2
2017-01-31T02:05:35.669Z,1013.2
2017-01-31T02:06:39.119Z,1013.1
2017-01-31T02:07:42.062Z,1013.1
2017-01-31T02:08:45.511Z,1013.2
2017-01-31T02:09:48.459Z,1013.1
2017-01-31T02:10:51.909Z,1013.2
2017-01-31T02:11:54.857Z,1013.2
2017-01-31T02:12:58.303Z,1013.2
2017-01-31T02:14:01.419Z,1013.2
2017-01-31T02:15:04.865Z,1013.2
2017-01-31T02:16:07.813Z,1013.3
2017-01-31T02:17:11.091Z,1013.2
2017-01-31T02:18:14.041Z,1013.2
2017-01-31T02:19:17.488Z,1013.2
2017-01-31T02:20:20.432Z,1013.2
2017-01-31T02:21:23.886Z,1013.2
2017-01-31T02:22:26.836Z,1013.2
2017-01-31T02:23:30.117Z,1013.3
2017-01-31T02:24:33.565Z,1013.3
2017-01-31T02:25:36.512Z,1013.2
2017-01-31T02:26:39.959Z,1013.3
2017-01-31T02:27:42.912Z,1013.3
2017-01-31T02:28:46.360Z,1013.3
2017-01-31T02:29:49.304Z,1013.3
2017-01-31T02:32:59.073Z,1013.3
2017-01-31T02:34:02.018Z,1013.3
2017-01-31T02:35:05.464Z,1013.3
2017-01-31T02:36:08.752Z,1013.3
2017-01-31T02:37:11.700Z,1013.3
2017-01-31T02:38:14.987Z,1013.3
2017-01-31T02:39:18.438Z,1013.3
2017-01-31T02:40:21.407Z,1013.3
2017-01-31T02:41:24.864Z,1013.3
2017-01-31T02:42:27.814Z,1013.3
2017-01-31T02:43:31.263Z,1013.3
2017-01-31T02:44:34.207Z,1013.3
2017-01-31T02:45:37.655Z,1013.3
2017-01-31T02:46:40.596Z,1013.3
2017-01-31T02:47:43.918Z,1013.4
2017-01-31T02:48:46.871Z,1013.3
2017-01-31T02:49:50.323Z,1013.3
2017-01-31T02:50:53.268Z,1013.4
2017-01-31T02:51:56.723Z,1013.3
2017-01-31T02:52:59.672Z,1013.3
2017-01-31T02:54:03.123Z,1013.4
2017-01-31T02:55:06.071Z,1013.4
2017-01-31T02:56:09.523Z,1013.3
2017-01-31T02:57:12.802Z,1013.3
2017-01-31T02:58:15.746Z,1013.3
2017-01-31T02:59:19.193Z,1013.3
2017-01-31T03:00:22.138Z,1013.3
2017-01-31T03:01:25.618Z,1013.3
2017-01-31T03:02:28.576Z,1013.3
2017-01-31T03:03:32.027Z,1013.3
2017-01-31T03:04:34.969Z,1013.3
2017-01-31T03:05:38.423Z,1013.3
2017-01-31T03:06:41.367Z,1013.3
2017-01-31T03:07:44.647Z,1013.3
2017-01-31T03:08:47.589Z,1013.3
2017-01-31T03:09:51.038Z,1013.3
2017-01-31T03:10:53.987Z,1013.3
2017-01-31T03:11:57.434Z,1013.4
2017-01-31T03:13:00.380Z,1013.3
2017-01-31T03:14:03.835Z,1013.3
2017-01-31T03:15:06.781Z,1013.3
2017-01-31T03:16:10.234Z,1013.3
2017-01-31T03:17:13.179Z,1013.3
2017-01-31T03:18:16.458Z,1013.3
2017-01-31T03:19:19.909Z,1013.3
2017-01-31T03:20:22.853Z,1013.4
2017-01-31T03:21:26.297Z,1013.3
2017-01-31T03:22:29.245Z,1013.3
2017-01-31T03:23:32.693Z,1013.3
2017-01-31T03:24:35.642Z,1013.3
2017-01-31T03:25:39.093Z,1013.3
2017-01-31T03:26:42.038Z,1013.3
2017-01-31T03:27:45.490Z,1013.3
2017-01-31T03:28:48.434Z,1013.3
2017-01-31T03:29:51.890Z,1013.3
2017-01-31T03:30:54.840Z,1013.3
2017-01-31T03:31:58.294Z,1013.3
2017-01-31T03:33:01.242Z,1013.3
2017-01-31T03:34:04.691Z,1013.3
2017-01-31T03:35:07.638Z,1013.3
2017-01-31T03:36:10.916Z,1013.3
2017-01-31T03:37:14.195Z,1013.3
2017-01-31T03:38:17.140Z,1013.3
2017-01-31T03:39:20.588Z,1013.4
2017-01-31T03:40:23.566Z,1013.4
2017-01-31T03:41:26.851Z,1013.3
2017-01-31T03:42:30.299Z,1013.4
2017-01-31T03:43:33.243Z,1013.3
2017-01-31T03:44:36.693Z,1013.4
2017-01-31T03:45:39.636Z,1013.4
2017-01-31T03:46:43.093Z,1013.4
2017-01-31T03:47:46.039Z,1013.4
2017-01-31T03:48:49.488Z,1013.4
2017-01-31T03:49:52.431Z,1013.3
2017-01-31T03:50:55.887Z,1013.3
2017-01-31T03:51:58.852Z,1013.4
2017-01-31T03:53:02.301Z,1013.4
2017-01-31T03:54:05.248Z,1013.4
2017-01-31T03:55:08.699Z,1013.4
2017-01-31T03:56:11.640Z,1013.4
2017-01-31T03:57:15.093Z,1013.3
2017-01-31T03:58:18.042Z,1013.3
2017-01-31T03:59:21.498Z,1013.4
2017-01-31T04:00:24.450Z,1013.4
2017-01-31T04:01:27.902Z,1013.4
2017-01-31T04:02:30.854Z,1013.4
2017-01-31T04:03:34.310Z,1013.4
2017-01-31T04:04:37.264Z,1013.4
2017-01-31T04:06:43.634Z,1013.4
2017-01-31T04:07:47.087Z,1013.4
2017-01-31T04:08:50.067Z,1013.4
2017-01-31T04:09:53.519Z,1013.4
2017-01-31T04:10:56.471Z,1013.5
2017-01-31T04:11:59.924Z,1013.4
2017-01-31T04:13:02.875Z,1013.4
2017-01-31T04:14:06.328Z,1013.4
2017-01-31T04:15:09.284Z,1013.4
2017-01-31T04:16:12.236Z,1013.4
2017-01-31T04:17:15.693Z,1013.5
2017-01-31T04:18:18.982Z,1013.5
2017-01-31T04:19:21.935Z,1013.5
2017-01-31T04:20:25.387Z,1013.4
2017-01-31T04:21:28.365Z,1013.5
2017-01-31T04:22:31.833Z,1013.5
2017-01-31T04:23:34.789Z,1013.4
2017-01-31T04:25:41.160Z,1013.4
2017-01-31T04:26:44.613Z,1013.5
2017-01-31T04:27:47.568Z,1013.5
2017-01-31T04:28:51.025Z,1013.5
2017-01-31T04:29:53.976Z,1013.5
2017-01-31T04:30:57.433Z,1013.5
2017-01-31T04:32:00.386Z,1013.5
2017-01-31T04:34:06.761Z,1013.5
2017-01-31T04:35:10.051Z,1013.5
2017-01-31T04:36:13.334Z,1013.5
2017-01-31T04:37:16.283Z,1013.5
2017-01-31T04:38:19.736Z,1013.5
2017-01-31T04:39:22.683Z,1013.4
2017-01-31T04:40:26.139Z,1013.5
2017-01-31T04:41:29.091Z,1013.5
2017-01-31T04:42:32.548Z,1013.5
2017-01-31T04:43:35.504Z,1013.4
2017-01-31T04:44:38.965Z,1013.4
2017-01-31T04:45:41.915Z,1013.4
2017-01-31T04:46:45.373Z,1013.4
2017-01-31T04:47:48.667Z,1013.4
2017-01-31T04:48:51.618Z,1013.4
2017-01-31T04:49:55.076Z,1013.4
2017-01-31T04:50:58.031Z,1013.4
2017-01-31T04:52:00.990Z,1013.4
2017-01-31T04:53:04.451Z,1013.3
2017-01-31T04:54:07.400Z,1013.3
2017-01-31T04:55:10.878Z,1013.4
2017-01-31T04:56:13.828Z,1013.4
2017-01-31T04:57:17.114Z,1013.4
2017-01-31T04:58:20.572Z,1013.3
2017-01-31T04:59:23.524Z,1013.3
2017-01-31T05:00:26.982Z,1013.3
2017-01-31T05:01:29.766Z,1013.3
2017-01-31T05:02:33.220Z,1013.3
2017-01-31T05:03:36.171Z,1013.3
2017-01-31T05:04:39.626Z,1013.3
2017-01-31T05:05:42.603Z,1013.3
2017-01-31T05:06:46.054Z,1013.4
2017-01-31T05:07:49.006Z,1013.4
2017-01-31T05:08:52.289Z,1013.4
2017-01-31T05:09:55.746Z,1013.4
2017-01-31T05:12:02.115Z,1013.4
2017-01-31T05:13:05.067Z,1013.4
2017-01-31T05:14:08.351Z,1013.4
2017-01-31T05:15:11.299Z,1013.3
2017-01-31T05:16:14.749Z,1013.4
2017-01-31T05:17:17.702Z,1013.3
2017-01-31T05:18:21.160Z,1013.3
2017-01-31T05:19:24.117Z,1013.3
2017-01-31T05:20:27.573Z,1013.4
2017-01-31T05:21:30.527Z,1013.3
2017-01-31T05:22:33.977Z,1013.3
2017-01-31T05:23:37.270Z,1013.3
2017-01-31T05:24:40.224Z,1013.3
2017-01-31T05:25:43.506Z,1013.3
2017-01-31T05:26:46.457Z,1013.3
2017-01-31T05:27:49.923Z,1013.3
2017-01-31T05:28:52.878Z,1013.3
2017-01-31T05:29:56.331Z,1013.3
2017-01-31T05:30:59.285Z,1013.3
2017-01-31T05:32:02.769Z,1013.2
2017-01-31T05:33:05.724Z,1013.2
2017-01-31T05:34:09.184Z,1013.2
2017-01-31T05:35:12.135Z,1013.2
2017-01-31T05:36:15.588Z,1013.2
2017-01-31T05:37:18.540Z,1013.2
2017-01-31T05:38:22.016Z,1013.2
2017-01-31T05:39:24.967Z,1013.2
2017-01-31T05:41:31.360Z,1013.2
2017-01-31T05:43:37.728Z,1013.2
2017-01-31T05:44:41.184Z,1013.2
2017-01-31T05:45:44.138Z,1013.2
2017-01-31T05:46:47.598Z,1013.2
2017-01-31T05:47:50.551Z,1013.2
2017-01-31T05:48:53.836Z,1013.2
2017-01-31T05:49:56.788Z,1013.2
2017-01-31T05:51:00.269Z,1013.2
2017-01-31T05:52:03.222Z,1013.2
2017-01-31T05:53:06.676Z,1013.2
2017-01-31T05:54:09.968Z,1013.2
2017-01-31T05:55:12.751Z,1013.2
2017-01-31T05:56:16.212Z,1013.2
2017-01-31T05:57:19.523Z,1013.2
2017-01-31T05:58:22.480Z,1013.2
2017-01-31T05:59:25.935Z,1013.2
2017-01-31T06:00:28.723Z,1013.2
2017-01-31T06:01:32.173Z,1013.2
2017-01-31T06:02:35.127Z,1013.2
2017-01-31T06:03:38.418Z,1013.2
2017-01-31T06:04:41.870Z,1013.2
2017-01-31T06:05:44.821Z,1013.2
2017-01-31T06:06:48.275Z,1013.2
2017-01-31T06:07:51.254Z,1013.2
2017-01-31T06:08:54.712Z,1013.2
2017-01-31T06:09:57.513Z,1013.2
2017-01-31T06:11:00.783Z,1013.2
2017-01-31T06:12:04.070Z,1013.2
2017-01-31T06:13:07.416Z,1013.2
2017-01-31T06:14:10.393Z,1013.2
2017-01-31T06:15:13.852Z,1013.2
2017-01-31T06:16:16.987Z,1013.2
2017-01-31T06:17:19.883Z,1013.2
2017-01-31T06:18:23.515Z,1013.2
2017-01-31T06:19:26.657Z,1013.2
2017-01-31T06:20:29.874Z,1013.2
2017-01-31T06:21:33.026Z,1013.2
2017-01-31T06:22:36.124Z,1013.2
2017-01-31T06:23:39.479Z,1013.1
2017-01-31T06:24:42.432Z,1013.2
2017-01-31T06:25:45.888Z,1013.2
2017-01-31T06:26:48.835Z,1013.1
2017-01-31T06:27:51.785Z,1013.2
2017-01-31T06:28:55.277Z,1013.1
2017-01-31T06:29:58.227Z,1013.2
2017-01-31T06:31:01.708Z,1013.1
2017-01-31T06:32:04.660Z,1013.1
2017-01-31T06:33:08.116Z,1013.1
2017-01-31T06:34:11.074Z,1013.1
2017-01-31T06:35:14.529Z,1013.2
2017-01-31T06:36:17.483Z,1013.1
2017-01-31T06:37:20.779Z,1013.1
2017-01-31T06:38:24.063Z,1013.1
2017-01-31T06:39:27.015Z,1013.1
2017-01-31T06:40:30.465Z,1013.2
2017-01-31T06:41:33.419Z,1013.2
2017-01-31T06:42:36.870Z,1013.3
2017-01-31T06:43:39.820Z,1013.4
2017-01-31T06:44:43.143Z,1013.4
2017-01-31T06:45:46.096Z,1013.4
2017-01-31T06:46:49.581Z,1013.4
2017-01-31T06:47:52.542Z,1013.4
2017-01-31T06:48:55.995Z,1013.4
2017-01-31T06:49:58.947Z,1013.4
2017-01-31T06:51:02.408Z,1013.4
2017-01-31T06:52:05.360Z,1013.4
2017-01-31T06:53:08.816Z,1013.3
2017-01-31T06:54:11.770Z,1013.4
2017-01-31T06:55:15.223Z,1013.3
2017-01-31T06:56:18.174Z,1013.3
2017-01-31T06:57:21.465Z,1013.3
2017-01-31T06:58:24.424Z,1013.3
2017-01-31T06:59:27.883Z,1013.3
2017-01-31T07:00:30.861Z,1013.3
2017-01-31T07:01:34.317Z,1013.3
2017-01-31T07:02:37.266Z,1013.2
2017-01-31T07:03:40.722Z,1013.3
2017-01-31T07:04:43.678Z,1013.2
2017-01-31T07:05:47.166Z,1013.2
2017-01-31T07:06:50.122Z,1013.3
2017-01-31T07:07:53.585Z,1013.3
2017-01-31T07:09:59.949Z,1013.3
2017-01-31T07:11:03.240Z,1013.2
2017-01-31T07:12:06.190Z,1013.2
2017-01-31T07:13:09.648Z,1013.1
2017-01-31T07:14:12.604Z,1013
2017-01-31T07:15:15.553Z,1012.8
2017-01-31T07:16:19.009Z,1012.8
2017-01-31T07:17:21.963Z,1012.8
2017-01-31T07:18:25.265Z,1012.8
2017-01-31T07:19:28.729Z,1012.7
2017-01-31T07:20:31.685Z,1012.8
2017-01-31T07:21:35.150Z,1012.7
2017-01-31T07:22:38.102Z,1012.6
2017-01-31T07:23:41.558Z,1012.6
2017-01-31T07:24:44.514Z,1012.6
2017-01-31T07:25:47.965Z,1012.5
2017-01-31T07:26:50.753Z,1012.4
2017-01-31T07:27:54.213Z,1012.4
2017-01-31T07:28:57.166Z,1012.4
2017-01-31T07:30:00.626Z,1012.4
2017-01-31T07:31:03.586Z,1012.4
2017-01-31T07:32:06.880Z,1012.5
2017-01-31T07:33:09.837Z,1012.4
2017-01-31T07:34:13.127Z,1012.4
2017-01-31T07:35:16.611Z,1012.4
2017-01-31T07:36:19.563Z,1012.4
2017-01-31T07:37:23.012Z,1012.4
2017-01-31T07:39:29.211Z,1012.4
2017-01-31T07:40:32.165Z,1012.4
2017-01-31T07:41:35.620Z,1012.3
2017-01-31T07:42:38.570Z,1012.3
2017-01-31T07:43:41.857Z,1012.3
2017-01-31T07:44:45.311Z,1012.4
2017-01-31T07:45:48.293Z,1012.4
2017-01-31T07:46:51.247Z,1012.4
2017-01-31T07:47:54.703Z,1012.4
2017-01-31T07:48:57.655Z,1012.4
2017-01-31T07:50:01.110Z,1012.5
2017-01-31T07:51:04.066Z,1012.4
2017-01-31T07:52:07.541Z,1012.4
2017-01-31T07:53:10.498Z,1012.5
2017-01-31T07:55:16.856Z,1012.5
2017-01-31T07:56:20.315Z,1012.4
2017-01-31T07:57:23.600Z,1012.5
2017-01-31T07:58:26.549Z,1012.4
2017-01-31T07:59:29.837Z,1012.4
2017-01-31T08:00:32.789Z,1012.4
2017-01-31T08:01:36.244Z,1012.4
2017-01-31T08:02:39.193Z,1012.4
2017-01-31T08:03:42.647Z,1012.5
2017-01-31T08:04:45.600Z,1012.5
2017-01-31T08:05:49.057Z,1012.5
2017-01-31T08:06:52.033Z,1012.5
2017-01-31T08:07:54.983Z,1012.5
2017-01-31T08:08:58.436Z,1012.5
2017-01-31T08:10:01.724Z,1012.4
2017-01-31T08:11:04.679Z,1012.4
2017-01-31T08:12:08.134Z,1012.4
2017-01-31T08:13:11.090Z,1012.4
2017-01-31T08:14:14.052Z,1012.4
2017-01-31T08:15:17.510Z,1012.4
2017-01-31T08:16:20.463Z,1012.4
2017-01-31T08:17:23.923Z,1012.4
2017-01-31T08:18:27.047Z,1012.5
2017-01-31T08:19:30.000Z,1012.4
2017-01-31T08:20:33.455Z,1012.4
2017-01-31T08:21:36.406Z,1012.5
2017-01-31T08:22:39.866Z,1012.5
2017-01-31T08:23:42.839Z,1012.5
2017-01-31T08:24:46.289Z,1012.4
2017-01-31T08:25:49.248Z,1012.4
2017-01-31T08:26:52.709Z,1012.4
2017-01-31T08:27:55.663Z,1012.5
2017-01-31T08:28:58.619Z,1012.5
2017-01-31T08:30:02.080Z,1012.5
2017-01-31T08:31:05.036Z,1012.6
2017-01-31T08:32:08.491Z,1012.6
2017-01-31T08:33:11.458Z,1012.7
2017-01-31T08:34:14.910Z,1012.7
2017-01-31T08:35:17.867Z,1012.8
2017-01-31T08:36:21.319Z,1012.7
2017-01-31T08:37:24.104Z,1012.8
2017-01-31T08:38:27.562Z,1012.8
2017-01-31T08:39:30.539Z,1012.8
2017-01-31T08:40:34.003Z,1012.9
2017-01-31T08:41:36.958Z,1012.9
2017-01-31T08:42:40.411Z,1012.9
2017-01-31T08:43:43.366Z,1013
2017-01-31T08:44:46.824Z,1013
2017-01-31T08:45:49.783Z,1012.9
2017-01-31T08:46:53.240Z,1012.9
2017-01-31T08:47:56.190Z,1013
2017-01-31T08:48:59.139Z,1012.9
2017-01-31T08:50:02.596Z,1013
2017-01-31T08:51:05.560Z,1013
2017-01-31T08:52:09.015Z,1013
2017-01-31T08:53:11.970Z,1013.1
2017-01-31T08:54:15.263Z,1013
2017-01-31T08:55:18.724Z,1013
2017-01-31T08:56:21.513Z,1013.1
2017-01-31T08:57:24.969Z,1013.1
2017-01-31T08:58:27.917Z,1013.1
2017-01-31T08:59:31.399Z,1013.2
2017-01-31T09:00:34.349Z,1013.2
2017-01-31T09:01:37.804Z,1013.2
2017-01-31T09:02:40.588Z,1013.3
2017-01-31T09:03:43.882Z,1013.3
2017-01-31T09:04:47.345Z,1013.4
2017-01-31T09:05:50.293Z,1013.4
2017-01-31T09:06:53.750Z,1013.5
2017-01-31T09:07:56.700Z,1013.5
2017-01-31T09:08:59.654Z,1013.5
2017-01-31T09:10:03.109Z,1013.5
2017-01-31T09:11:06.231Z,1013.5
2017-01-31T09:12:09.687Z,1013.5
2017-01-31T09:13:12.649Z,1013.5
2017-01-31T09:14:15.937Z,1013.5
2017-01-31T09:15:19.253Z,1013.5
2017-01-31T09:16:22.208Z,1013.5
2017-01-31T09:17:25.155Z,1013.5
2017-01-31T09:18:28.605Z,1013.6
2017-01-31T09:19:31.557Z,1013.6
2017-01-31T09:20:35.012Z,1013.6
2017-01-31T09:21:37.965Z,1013.6
2017-01-31T09:22:41.426Z,1013.6
2017-01-31T09:23:44.376Z,1013.7
2017-01-31T09:24:47.832Z,1013.6
2017-01-31T09:25:50.779Z,1013.7
2017-01-31T09:26:54.258Z,1013.7
2017-01-31T09:27:57.212Z,1013.7
2017-01-31T09:29:00.675Z,1013.7
2017-01-31T09:30:03.466Z,1013.7
2017-01-31T09:31:06.922Z,1013.7
2017-01-31T09:32:09.882Z,1013.7
2017-01-31T09:33:13.332Z,1013.7
2017-01-31T09:34:16.286Z,1013.7
2017-01-31T09:35:19.761Z,1013.6
2017-01-31T09:36:22.715Z,1013.6
2017-01-31T09:37:26.172Z,1013.6
2017-01-31T09:38:29.129Z,1013.6
2017-01-31T09:39:32.239Z,1013.6
2017-01-31T09:40:35.696Z,1013.6
2017-01-31T09:41:38.648Z,1013.7
2017-01-31T09:42:42.106Z,1013.7
2017-01-31T09:43:45.058Z,1013.6
2017-01-31T09:44:48.345Z,1013.7
2017-01-31T09:45:51.294Z,1013.7
2017-01-31T09:46:54.757Z,1013.7
2017-01-31T09:47:57.713Z,1013.7
2017-01-31T09:49:01.170Z,1013.7
2017-01-31T09:50:04.118Z,1013.6
2017-01-31T09:51:07.601Z,1013.6
2017-01-31T09:52:10.385Z,1013.6
2017-01-31T09:53:13.838Z,1013.6
2017-01-31T09:54:16.788Z,1013.6
2017-01-31T09:55:20.244Z,1013.6
2017-01-31T09:56:23.196Z,1013.6
2017-01-31T09:57:26.662Z,1013.6
2017-01-31T09:58:29.615Z,1013.5
2017-01-31T09:59:32.901Z,1013.4
2017-01-31T10:00:36.220Z,1013.4
2017-01-31T10:01:39.175Z,1013.3
2017-01-31T10:02:42.462Z,1013.4
2017-01-31T10:03:45.439Z,1013.4
2017-01-31T10:04:48.894Z,1013.3
2017-01-31T10:05:51.867Z,1013.3
2017-01-31T10:06:55.158Z,1013.4
2017-01-31T10:07:58.445Z,1013.3
2017-01-31T10:09:01.399Z,1013.4
2017-01-31T10:10:04.860Z,1013.5
2017-01-31T10:11:07.807Z,1013.5
2017-01-31T10:12:10.925Z,1013.6
2017-01-31T10:13:14.380Z,1013.6
2017-01-31T10:14:17.329Z,1013.7
2017-01-31T10:15:20.624Z,1013.7
2017-01-31T10:16:24.079Z,1013.8
2017-01-31T10:17:27.038Z,1013.8
2017-01-31T10:18:29.988Z,1013.9
2017-01-31T10:19:33.447Z,1014
2017-01-31T10:20:36.402Z,1014.1
2017-01-31T10:21:39.860Z,1014.1
2017-01-31T10:22:43.153Z,1014.1
2017-01-31T10:23:46.138Z,1014.1
2017-01-31T10:24:49.086Z,1014.2
2017-01-31T10:25:52.542Z,1014.2
2017-01-31T10:26:55.495Z,1014.3
2017-01-31T10:27:58.954Z,1014.3
2017-01-31T10:29:01.914Z,1014.2
2017-01-31T10:31:08.282Z,1014.3
2017-01-31T10:32:11.661Z,1014.3
2017-01-31T10:33:14.616Z,1014.4
2017-01-31T10:34:18.075Z,1014.4
2017-01-31T10:35:21.026Z,1014.4
2017-01-31T10:36:24.478Z,1014.5
2017-01-31T10:37:27.428Z,1014.5
2017-01-31T10:38:30.887Z,1014.5
2017-01-31T10:39:33.842Z,1014.5
2017-01-31T10:40:37.303Z,1014.5
2017-01-31T10:42:43.667Z,1014.5
2017-01-31T10:43:46.619Z,1014.5
2017-01-31T10:44:50.071Z,1014.5
2017-01-31T10:45:53.026Z,1014.5
2017-01-31T10:46:56.309Z,1014.6
2017-01-31T10:47:59.267Z,1014.5
2017-01-31T10:49:02.750Z,1014.6
2017-01-31T10:50:05.706Z,1014.6
2017-01-31T10:51:08.992Z,1014.6
2017-01-31T10:52:11.948Z,1014.7
2017-01-31T10:53:15.432Z,1014.7
2017-01-31T10:54:18.383Z,1014.7
2017-01-31T10:55:21.847Z,1014.7
2017-01-31T10:56:24.801Z,1014.7
2017-01-31T10:57:28.260Z,1014.8
2017-01-31T10:58:31.212Z,1014.7
2017-01-31T10:59:34.501Z,1014.7
2017-01-31T11:00:37.450Z,1014.7
2017-01-31T11:01:40.906Z,1014.7
2017-01-31T11:02:43.857Z,1014.7
2017-01-31T11:03:47.310Z,1014.7
2017-01-31T11:04:50.305Z,1014.7
2017-01-31T11:05:53.268Z,1014.7
2017-01-31T11:06:56.721Z,1014.7
2017-01-31T11:07:26.957Z,1014.7
2017-01-31T11:07:59.714Z,1014.8
2017-01-31T11:09:03.170Z,1014.8
2017-01-31T11:10:06.123Z,1014.8
2017-01-31T11:11:09.241Z,1014.8
2017-01-31T11:12:12.691Z,1014.8
2017-01-31T11:13:15.641Z,1014.9
2017-01-31T11:14:19.095Z,1014.9
2017-01-31T11:15:22.075Z,1014.9
2017-01-31T11:16:25.526Z,1014.9
2017-01-31T11:17:28.480Z,1015
2017-01-31T11:19:34.843Z,1015
2017-01-31T11:20:38.294Z,1015
2017-01-31T11:21:41.242Z,1015.1
2017-01-31T11:22:44.696Z,1015.1
2017-01-31T11:23:47.647Z,1015
2017-01-31T11:24:50.619Z,1015.1
2017-01-31T11:25:54.079Z,1015.1
2017-01-31T11:26:57.027Z,1015.2
2017-01-31T11:28:00.483Z,1015.1
2017-01-31T11:29:03.435Z,1015.1
2017-01-31T11:30:06.889Z,1015.1
2017-01-31T11:31:09.858Z,1015.2
2017-01-31T11:32:13.343Z,1015.3
2017-01-31T11:33:16.295Z,1015.3
2017-01-31T11:34:19.745Z,1015.3
2017-01-31T11:35:22.701Z,1015.3
2017-01-31T11:36:25.984Z,1015.4
2017-01-31T11:37:29.270Z,1015.4
2017-01-31T11:38:32.219Z,1015.5
2017-01-31T11:39:35.680Z,1015.5
2017-01-31T11:40:38.637Z,1015.6
2017-01-31T11:41:42.099Z,1015.6
2017-01-31T11:42:45.047Z,1015.7
2017-01-31T11:43:47.995Z,1015.8
2017-01-31T11:44:51.448Z,1015.9
2017-01-31T11:45:54.797Z,1016
2017-01-31T11:46:57.745Z,1016.2
2017-01-31T11:48:01.197Z,1016.2
2017-01-31T11:49:04.149Z,1016.2
2017-01-31T11:50:07.604Z,1016.3
2017-01-31T11:51:10.388Z,1016.3
2017-01-31T11:52:13.842Z,1016.3
2017-01-31T11:53:16.796Z,1016.3
2017-01-31T11:54:20.252Z,1016.3
2017-01-31T11:55:23.239Z,1016.3
2017-01-31T11:56:26.526Z,1016.3
2017-01-31T11:57:29.816Z,1016.3
2017-01-31T11:58:32.773Z,1016.2
2017-01-31T11:59:36.229Z,1016.2
2017-01-31T12:00:39.180Z,1016.3
2017-01-31T12:01:42.637Z,1016.2
2017-01-31T12:02:45.588Z,1016.3
2017-01-31T12:03:49.044Z,1016.3
2017-01-31T12:05:55.240Z,1016.2
2017-01-31T12:06:58.191Z,1016.3
2017-01-31T12:08:01.647Z,1016.3
2017-01-31T12:09:04.639Z,1016.3
2017-01-31T12:10:07.933Z,1016.3
2017-01-31T12:11:11.220Z,1016.4
2017-01-31T12:12:14.176Z,1016.4
2017-01-31T12:13:17.629Z,1016.5
2017-01-31T12:14:20.586Z,1016.5
2017-01-31T12:15:24.053Z,1016.6
2017-01-31T12:16:27.030Z,1016.6
2017-01-31T12:17:30.485Z,1016.6
2017-01-31T12:18:33.496Z,1016.6
2017-01-31T12:19:36.447Z,1016.7
2017-01-31T12:20:39.905Z,1016.7
2017-01-31T12:21:42.857Z,1016.7
2017-01-31T12:22:46.310Z,1016.7
2017-01-31T12:23:49.257Z,1016.7
2017-01-31T12:24:52.741Z,1016.7
2017-01-31T12:25:55.694Z,1016.7
2017-01-31T12:28:02.065Z,1016.8
2017-01-31T12:29:05.522Z,1016.8
2017-01-31T12:30:08.476Z,1016.8
2017-01-31T12:31:11.760Z,1016.8
2017-01-31T12:32:15.213Z,1016.8
2017-01-31T12:33:18.166Z,1016.7
2017-01-31T12:35:24.526Z,1016.8
2017-01-31T12:36:27.979Z,1016.8
2017-01-31T12:37:30.930Z,1016.9
2017-01-31T12:38:34.382Z,1016.8
2017-01-31T12:39:37.165Z,1016.9
2017-01-31T12:40:40.621Z,1016.9
2017-01-31T12:41:43.571Z,1016.9
2017-01-31T12:42:47.023Z,1016.9
2017-01-31T12:43:49.975Z,1016.9
2017-01-31T12:44:53.428Z,1016.8
2017-01-31T12:45:56.380Z,1016.8
2017-01-31T12:46:59.864Z,1016.8
2017-01-31T12:48:02.816Z,1016.8
2017-01-31T12:49:06.275Z,1016.7
2017-01-31T12:50:09.230Z,1016.7
2017-01-31T12:51:12.692Z,1016.7
2017-01-31T12:52:15.640Z,1016.7
2017-01-31T12:53:18.653Z,1016.7
2017-01-31T12:54:22.111Z,1016.7
2017-01-31T12:55:25.406Z,1016.7
2017-01-31T12:56:28.357Z,1016.7
2017-01-31T12:57:31.846Z,1016.7
2017-01-31T12:58:34.804Z,1016.7
2017-01-31T12:59:38.131Z,1016.7
2017-01-31T13:00:41.090Z,1016.7
2017-01-31T13:01:44.545Z,1016.7
2017-01-31T13:02:47.499Z,1016.7
2017-01-31T13:04:53.866Z,1016.7
2017-01-31T13:05:57.325Z,1016.7
2017-01-31T13:07:00.277Z,1016.8
2017-01-31T13:08:03.736Z,1016.8
2017-01-31T13:09:06.691Z,1016.8
2017-01-31T13:10:10.156Z,1016.8
2017-01-31T13:11:13.109Z,1016.7
2017-01-31T13:12:16.565Z,1016.8
2017-01-31T13:13:19.521Z,1016.8
2017-01-31T13:14:22.476Z,1016.8
2017-01-31T13:15:25.933Z,1016.8
2017-01-31T13:16:28.886Z,1016.9
2017-01-31T13:17:32.342Z,1016.9
2017-01-31T13:18:35.290Z,1016.8
2017-01-31T13:19:38.749Z,1016.8
2017-01-31T13:20:41.703Z,1016.9
2017-01-31T13:21:45.157Z,1016.9
2017-01-31T13:22:48.105Z,1016.9
2017-01-31T13:23:51.560Z,1016.9
2017-01-31T13:24:54.848Z,1016.9
2017-01-31T13:25:57.804Z,1016.8
2017-01-31T13:27:01.265Z,1016.8
2017-01-31T13:28:04.219Z,1016.8
2017-01-31T13:29:07.504Z,1016.8
2017-01-31T13:30:10.455Z,1016.8